sensor_id;sensor_type;location;lat;lon;timestamp;P1;durP1;ratioP1;P2;durP2;ratioP2
12165;SDS011;6146;48.128;11.476;2022-08-19T00:00:04;5.80;;;5.30;;
12165;SDS011;6146;48.128;11.476;2022-08-19T00:02:33;5.83;;;5.33;;
12165;SDS011;6146;48.128;11.476;2022-08-19T00:04:58;6.33;;;5.70;;
12165;SDS011;6146;48.128;11.476;2022-08-19T00:07:24;6.10;;;5.50;;
12165;SDS011;6146;48.128;11.476;2022-08-19T00:09:50;7.40;;;6.20;;
12165;SDS011;6146;48.128;11.476;2022-08-19T00:12:15;7.03;;;6.43;;
12165;SDS011;6146;48.128;11.476;2022-08-19T00:14:41;7.23;;;5.57;;
12165;SDS011;6146;48.128;11.476;2022-08-19T00:17:08;5.90;;;5.40;;
12165;SDS011;6146;48.128;11.476;2022-08-19T00:19:34;7.00;;;6.30;;
12165;SDS011;6146;48.128;11.476;2022-08-19T00:22:01;6.80;;;6.20;;
12165;SDS011;6146;48.128;11.476;2022-08-19T00:24:27;6.77;;;6.17;;
12165;SDS011;6146;48.128;11.476;2022-08-19T00:26:53;8.03;;;7.23;;
12165;SDS011;6146;48.128;11.476;2022-08-19T00:29:20;7.53;;;6.73;;
12165;SDS011;6146;48.128;11.476;2022-08-19T00:31:47;7.03;;;6.23;;
12165;SDS011;6146;48.128;11.476;2022-08-19T00:34:13;7.37;;;6.77;;
12165;SDS011;6146;48.128;11.476;2022-08-19T00:36:41;7.20;;;6.50;;
12165;SDS011;6146;48.128;11.476;2022-08-19T00:39:08;8.60;;;7.80;;
12165;SDS011;6146;48.128;11.476;2022-08-19T00:41:35;8.27;;;7.47;;
12165;SDS011;6146;48.128;11.476;2022-08-19T00:46:26;8.93;;;8.00;;
12165;SDS011;6146;48.128;11.476;2022-08-19T00:48:53;8.03;;;7.33;;
12165;SDS011;6146;48.128;11.476;2022-08-19T00:51:19;7.77;;;6.97;;
12165;SDS011;6146;48.128;11.476;2022-08-19T00:53:45;8.57;;;7.73;;
12165;SDS011;6146;48.128;11.476;2022-08-19T00:56:11;8.37;;;7.57;;
12165;SDS011;6146;48.128;11.476;2022-08-19T00:58:36;9.30;;;8.40;;
12165;SDS011;6146;48.128;11.476;2022-08-19T01:01:03;9.97;;;9.03;;
12165;SDS011;6146;48.128;11.476;2022-08-19T01:03:29;8.57;;;7.77;;
12165;SDS011;6146;48.128;11.476;2022-08-19T01:05:55;9.23;;;8.40;;
12165;SDS011;6146;48.128;11.476;2022-08-19T01:08:21;8.90;;;8.07;;
12165;SDS011;6146;48.128;11.476;2022-08-19T01:10:49;9.60;;;8.70;;
12165;SDS011;6146;48.128;11.476;2022-08-19T01:13:17;10.13;;;9.13;;
12165;SDS011;6146;48.128;11.476;2022-08-19T01:15:46;10.60;;;9.60;;
12165;SDS011;6146;48.128;11.476;2022-08-19T01:18:17;9.63;;;8.73;;
12165;SDS011;6146;48.128;11.476;2022-08-19T01:20:45;10.23;;;9.23;;
12165;SDS011;6146;48.128;11.476;2022-08-19T01:23:11;10.93;;;9.93;;
12165;SDS011;6146;48.128;11.476;2022-08-19T01:25:40;11.20;;;10.10;;
12165;SDS011;6146;48.128;11.476;2022-08-19T01:28:14;11.20;;;10.10;;
12165;SDS011;6146;48.128;11.476;2022-08-19T01:30:41;11.13;;;10.03;;
12165;SDS011;6146;48.128;11.476;2022-08-19T01:33:07;11.57;;;10.37;;
12165;SDS011;6146;48.128;11.476;2022-08-19T01:35:32;10.10;;;9.20;;
12165;SDS011;6146;48.128;11.476;2022-08-19T01:38:03;10.43;;;9.37;;
12165;SDS011;6146;48.128;11.476;2022-08-19T01:40:33;10.07;;;9.13;;
12165;SDS011;6146;48.128;11.476;2022-08-19T01:43:00;11.23;;;10.23;;
12165;SDS011;6146;48.128;11.476;2022-08-19T01:45:28;10.50;;;9.50;;
12165;SDS011;6146;48.128;11.476;2022-08-19T01:47:55;9.77;;;8.80;;
12165;SDS011;6146;48.128;11.476;2022-08-19T01:50:21;10.30;;;9.30;;
12165;SDS011;6146;48.128;11.476;2022-08-19T01:52:47;10.50;;;9.50;;
12165;SDS011;6146;48.128;11.476;2022-08-19T01:55:14;9.77;;;8.87;;
12165;SDS011;6146;48.128;11.476;2022-08-19T01:57:43;9.43;;;8.53;;
12165;SDS011;6146;48.128;11.476;2022-08-19T02:00:23;9.33;;;8.43;;
12165;SDS011;6146;48.128;11.476;2022-08-19T02:02:52;9.47;;;8.57;;
12165;SDS011;6146;48.128;11.476;2022-08-19T02:05:19;9.40;;;8.50;;
12165;SDS011;6146;48.128;11.476;2022-08-19T02:07:46;9.53;;;8.53;;
12165;SDS011;6146;48.128;11.476;2022-08-19T02:10:13;9.60;;;8.70;;
12165;SDS011;6146;48.128;11.476;2022-08-19T02:12:41;9.23;;;8.37;;
12165;SDS011;6146;48.128;11.476;2022-08-19T02:15:07;8.73;;;7.83;;
12165;SDS011;6146;48.128;11.476;2022-08-19T02:17:33;8.80;;;7.60;;
12165;SDS011;6146;48.128;11.476;2022-08-19T02:19:59;9.33;;;7.87;;
12165;SDS011;6146;48.128;11.476;2022-08-19T02:22:25;8.63;;;7.70;;
12165;SDS011;6146;48.128;11.476;2022-08-19T02:24:54;8.60;;;7.77;;
12165;SDS011;6146;48.128;11.476;2022-08-19T02:27:20;9.13;;;8.33;;
12165;SDS011;6146;48.128;11.476;2022-08-19T02:29:47;8.37;;;7.53;;
12165;SDS011;6146;48.128;11.476;2022-08-19T02:32:15;8.13;;;7.43;;
12165;SDS011;6146;48.128;11.476;2022-08-19T02:34:41;8.73;;;7.83;;
12165;SDS011;6146;48.128;11.476;2022-08-19T02:37:06;9.27;;;8.23;;
12165;SDS011;6146;48.128;11.476;2022-08-19T02:39:52;8.30;;;7.47;;
12165;SDS011;6146;48.128;11.476;2022-08-19T02:42:17;8.17;;;7.37;;
12165;SDS011;6146;48.128;11.476;2022-08-19T02:44:43;8.33;;;7.17;;
12165;SDS011;6146;48.128;11.476;2022-08-19T02:47:09;8.33;;;7.53;;
12165;SDS011;6146;48.128;11.476;2022-08-19T02:49:35;7.57;;;6.87;;
12165;SDS011;6146;48.128;11.476;2022-08-19T02:52:01;7.63;;;6.93;;
12165;SDS011;6146;48.128;11.476;2022-08-19T02:54:27;7.53;;;6.83;;
12165;SDS011;6146;48.128;11.476;2022-08-19T02:56:53;8.00;;;7.30;;
12165;SDS011;6146;48.128;11.476;2022-08-19T02:59:19;8.03;;;7.33;;
12165;SDS011;6146;48.128;11.476;2022-08-19T03:01:44;8.33;;;7.53;;
12165;SDS011;6146;48.128;11.476;2022-08-19T03:04:12;8.10;;;7.30;;
12165;SDS011;6146;48.128;11.476;2022-08-19T03:06:41;7.97;;;7.17;;
12165;SDS011;6146;48.128;11.476;2022-08-19T03:09:08;7.47;;;6.77;;
12165;SDS011;6146;48.128;11.476;2022-08-19T03:11:35;8.50;;;7.13;;
12165;SDS011;6146;48.128;11.476;2022-08-19T03:14:01;7.33;;;6.63;;
12165;SDS011;6146;48.128;11.476;2022-08-19T03:16:28;7.90;;;7.20;;
12165;SDS011;6146;48.128;11.476;2022-08-19T03:18:56;7.33;;;6.63;;
12165;SDS011;6146;48.128;11.476;2022-08-19T03:21:25;7.23;;;6.50;;
12165;SDS011;6146;48.128;11.476;2022-08-19T03:23:55;7.37;;;6.70;;
12165;SDS011;6146;48.128;11.476;2022-08-19T03:26:22;7.90;;;7.10;;
12165;SDS011;6146;48.128;11.476;2022-08-19T03:28:48;7.07;;;6.40;;
12165;SDS011;6146;48.128;11.476;2022-08-19T03:31:15;7.97;;;6.10;;
12165;SDS011;6146;48.128;11.476;2022-08-19T03:33:42;6.70;;;6.03;;
12165;SDS011;6146;48.128;11.476;2022-08-19T03:36:10;7.00;;;6.20;;
12165;SDS011;6146;48.128;11.476;2022-08-19T03:38:49;7.50;;;6.80;;
12165;SDS011;6146;48.128;11.476;2022-08-19T03:41:18;6.90;;;6.30;;
12165;SDS011;6146;48.128;11.476;2022-08-19T03:43:49;6.40;;;5.80;;
12165;SDS011;6146;48.128;11.476;2022-08-19T03:46:17;6.53;;;5.93;;
12165;SDS011;6146;48.128;11.476;2022-08-19T03:48:47;6.80;;;5.67;;
12165;SDS011;6146;48.128;11.476;2022-08-19T03:51:35;7.50;;;6.80;;
12165;SDS011;6146;48.128;11.476;2022-08-19T03:54:03;7.33;;;6.63;;
12165;SDS011;6146;48.128;11.476;2022-08-19T03:56:32;6.47;;;5.87;;
12165;SDS011;6146;48.128;11.476;2022-08-19T03:58:59;6.33;;;5.73;;
12165;SDS011;6146;48.128;11.476;2022-08-19T04:01:26;7.47;;;6.43;;
12165;SDS011;6146;48.128;11.476;2022-08-19T04:03:54;7.17;;;6.47;;
12165;SDS011;6146;48.128;11.476;2022-08-19T04:06:29;7.27;;;6.50;;
12165;SDS011;6146;48.128;11.476;2022-08-19T04:09:01;7.50;;;6.70;;
12165;SDS011;6146;48.128;11.476;2022-08-19T04:11:29;7.93;;;7.17;;
12165;SDS011;6146;48.128;11.476;2022-08-19T04:13:58;8.90;;;7.67;;
12165;SDS011;6146;48.128;11.476;2022-08-19T04:16:25;8.27;;;7.47;;
12165;SDS011;6146;48.128;11.476;2022-08-19T04:18:55;8.47;;;7.67;;
12165;SDS011;6146;48.128;11.476;2022-08-19T04:21:24;8.27;;;7.47;;
12165;SDS011;6146;48.128;11.476;2022-08-19T04:23:51;8.00;;;7.20;;
12165;SDS011;6146;48.128;11.476;2022-08-19T04:26:18;9.30;;;8.40;;
12165;SDS011;6146;48.128;11.476;2022-08-19T04:28:52;10.10;;;8.73;;
12165;SDS011;6146;48.128;11.476;2022-08-19T04:31:20;8.87;;;8.07;;
12165;SDS011;6146;48.128;11.476;2022-08-19T04:33:50;9.03;;;8.13;;
12165;SDS011;6146;48.128;11.476;2022-08-19T04:36:18;9.70;;;8.57;;
12165;SDS011;6146;48.128;11.476;2022-08-19T04:38:49;9.37;;;8.47;;
12165;SDS011;6146;48.128;11.476;2022-08-19T04:41:18;10.17;;;8.60;;
12165;SDS011;6146;48.128;11.476;2022-08-19T04:44:02;9.33;;;8.07;;
12165;SDS011;6146;48.128;11.476;2022-08-19T04:46:28;9.03;;;8.13;;
12165;SDS011;6146;48.128;11.476;2022-08-19T04:48:57;9.27;;;8.33;;
12165;SDS011;6146;48.128;11.476;2022-08-19T04:51:27;8.60;;;7.70;;
12165;SDS011;6146;48.128;11.476;2022-08-19T04:53:53;9.23;;;7.47;;
12165;SDS011;6146;48.128;11.476;2022-08-19T04:56:19;7.77;;;6.87;;
12165;SDS011;6146;48.128;11.476;2022-08-19T04:58:47;10.27;;;8.03;;
12165;SDS011;6146;48.128;11.476;2022-08-19T05:01:15;8.97;;;8.17;;
12165;SDS011;6146;48.128;11.476;2022-08-19T05:03:44;9.30;;;8.40;;
12165;SDS011;6146;48.128;11.476;2022-08-19T05:06:10;9.73;;;8.20;;
12165;SDS011;6146;48.128;11.476;2022-08-19T05:08:38;8.70;;;7.80;;
12165;SDS011;6146;48.128;11.476;2022-08-19T05:14:04;8.60;;;7.73;;
12165;SDS011;6146;48.128;11.476;2022-08-19T05:16:31;9.00;;;7.97;;
12165;SDS011;6146;48.128;11.476;2022-08-19T05:18:56;7.97;;;7.17;;
12165;SDS011;6146;48.128;11.476;2022-08-19T05:21:41;9.00;;;8.13;;
12165;SDS011;6146;48.128;11.476;2022-08-19T05:24:25;8.93;;;8.03;;
12165;SDS011;6146;48.128;11.476;2022-08-19T05:26:52;9.33;;;8.33;;
12165;SDS011;6146;48.128;11.476;2022-08-19T05:29:22;8.90;;;8.00;;
12165;SDS011;6146;48.128;11.476;2022-08-19T05:31:49;8.80;;;7.97;;
12165;SDS011;6146;48.128;11.476;2022-08-19T05:34:17;8.83;;;7.90;;
12165;SDS011;6146;48.128;11.476;2022-08-19T05:36:46;9.00;;;8.10;;
12165;SDS011;6146;48.128;11.476;2022-08-19T05:39:14;8.40;;;7.60;;
12165;SDS011;6146;48.128;11.476;2022-08-19T05:41:43;8.80;;;7.77;;
12165;SDS011;6146;48.128;11.476;2022-08-19T05:44:22;9.33;;;8.23;;
12165;SDS011;6146;48.128;11.476;2022-08-19T05:46:49;8.87;;;7.80;;
12165;SDS011;6146;48.128;11.476;2022-08-19T05:49:17;9.10;;;8.30;;
12165;SDS011;6146;48.128;11.476;2022-08-19T05:51:44;9.10;;;8.20;;
12165;SDS011;6146;48.128;11.476;2022-08-19T05:54:10;9.37;;;8.47;;
12165;SDS011;6146;48.128;11.476;2022-08-19T05:56:38;8.97;;;8.07;;
12165;SDS011;6146;48.128;11.476;2022-08-19T05:59:05;9.83;;;8.87;;
12165;SDS011;6146;48.128;11.476;2022-08-19T06:01:36;9.87;;;8.93;;
12165;SDS011;6146;48.128;11.476;2022-08-19T06:04:03;10.13;;;9.13;;
12165;SDS011;6146;48.128;11.476;2022-08-19T06:06:29;10.77;;;9.67;;
12165;SDS011;6146;48.128;11.476;2022-08-19T06:08:54;8.77;;;7.80;;
12165;SDS011;6146;48.128;11.476;2022-08-19T06:11:22;10.03;;;9.03;;
12165;SDS011;6146;48.128;11.476;2022-08-19T06:14:00;8.37;;;7.50;;
12165;SDS011;6146;48.128;11.476;2022-08-19T06:16:28;9.83;;;8.83;;
12165;SDS011;6146;48.128;11.476;2022-08-19T06:18:56;11.37;;;10.27;;
12165;SDS011;6146;48.128;11.476;2022-08-19T06:21:25;11.93;;;10.83;;
12165;SDS011;6146;48.128;11.476;2022-08-19T06:23:53;11.17;;;10.07;;
12165;SDS011;6146;48.128;11.476;2022-08-19T06:26:19;11.63;;;10.43;;
12165;SDS011;6146;48.128;11.476;2022-08-19T06:28:47;11.43;;;10.33;;
12165;SDS011;6146;48.128;11.476;2022-08-19T06:31:14;11.47;;;10.30;;
12165;SDS011;6146;48.128;11.476;2022-08-19T06:33:46;12.10;;;10.20;;
12165;SDS011;6146;48.128;11.476;2022-08-19T06:36:22;12.07;;;10.77;;
12165;SDS011;6146;48.128;11.476;2022-08-19T06:38:56;11.43;;;10.23;;
12165;SDS011;6146;48.128;11.476;2022-08-19T06:41:26;13.30;;;10.83;;
12165;SDS011;6146;48.128;11.476;2022-08-19T06:43:53;10.40;;;9.37;;
12165;SDS011;6146;48.128;11.476;2022-08-19T06:46:19;10.63;;;9.63;;
12165;SDS011;6146;48.128;11.476;2022-08-19T06:48:46;10.63;;;9.63;;
12165;SDS011;6146;48.128;11.476;2022-08-19T06:51:13;10.13;;;9.13;;
12165;SDS011;6146;48.128;11.476;2022-08-19T06:53:43;10.33;;;9.10;;
12165;SDS011;6146;48.128;11.476;2022-08-19T06:56:16;10.53;;;9.43;;
12165;SDS011;6146;48.128;11.476;2022-08-19T06:58:44;10.90;;;9.03;;
12165;SDS011;6146;48.128;11.476;2022-08-19T07:01:10;10.03;;;9.03;;
12165;SDS011;6146;48.128;11.476;2022-08-19T07:03:36;10.77;;;9.73;;
12165;SDS011;6146;48.128;11.476;2022-08-19T07:06:04;10.63;;;9.63;;
12165;SDS011;6146;48.128;11.476;2022-08-19T07:08:32;12.33;;;10.20;;
12165;SDS011;6146;48.128;11.476;2022-08-19T07:10:59;13.47;;;11.17;;
12165;SDS011;6146;48.128;11.476;2022-08-19T07:13:25;11.67;;;10.47;;
12165;SDS011;6146;48.128;11.476;2022-08-19T07:15:50;12.90;;;11.63;;
12165;SDS011;6146;48.128;11.476;2022-08-19T07:18:20;13.93;;;12.10;;
12165;SDS011;6146;48.128;11.476;2022-08-19T07:20:46;13.23;;;12.03;;
12165;SDS011;6146;48.128;11.476;2022-08-19T07:23:13;12.87;;;11.50;;
12165;SDS011;6146;48.128;11.476;2022-08-19T07:25:39;14.10;;;12.20;;
12165;SDS011;6146;48.128;11.476;2022-08-19T07:28:04;12.90;;;11.60;;
12165;SDS011;6146;48.128;11.476;2022-08-19T07:30:32;14.37;;;11.83;;
12165;SDS011;6146;48.128;11.476;2022-08-19T07:33:00;13.43;;;12.03;;
12165;SDS011;6146;48.128;11.476;2022-08-19T07:35:26;14.00;;;12.70;;
12165;SDS011;6146;48.128;11.476;2022-08-19T07:37:53;13.83;;;12.43;;
12165;SDS011;6146;48.128;11.476;2022-08-19T07:40:18;15.30;;;13.87;;
12165;SDS011;6146;48.128;11.476;2022-08-19T07:42:44;16.87;;;15.13;;
12165;SDS011;6146;48.128;11.476;2022-08-19T07:45:10;18.90;;;16.90;;
12165;SDS011;6146;48.128;11.476;2022-08-19T07:47:35;18.73;;;16.93;;
12165;SDS011;6146;48.128;11.476;2022-08-19T07:50:02;17.23;;;15.43;;
12165;SDS011;6146;48.128;11.476;2022-08-19T07:52:29;18.80;;;16.77;;
12165;SDS011;6146;48.128;11.476;2022-08-19T07:54:55;18.50;;;16.63;;
12165;SDS011;6146;48.128;11.476;2022-08-19T07:57:20;16.93;;;15.33;;
12165;SDS011;6146;48.128;11.476;2022-08-19T07:59:46;17.93;;;16.07;;
12165;SDS011;6146;48.128;11.476;2022-08-19T08:02:11;19.83;;;17.83;;
12165;SDS011;6146;48.128;11.476;2022-08-19T08:04:37;18.17;;;16.37;;
12165;SDS011;6146;48.128;11.476;2022-08-19T08:07:35;19.73;;;17.63;;
12165;SDS011;6146;48.128;11.476;2022-08-19T08:10:19;17.40;;;15.70;;
12165;SDS011;6146;48.128;11.476;2022-08-19T08:12:45;18.47;;;16.67;;
12165;SDS011;6146;48.128;11.476;2022-08-19T08:15:12;17.73;;;15.87;;
12165;SDS011;6146;48.128;11.476;2022-08-19T08:17:44;18.93;;;16.93;;
12165;SDS011;6146;48.128;11.476;2022-08-19T08:20:10;19.77;;;17.40;;
12165;SDS011;6146;48.128;11.476;2022-08-19T08:22:36;20.40;;;18.20;;
12165;SDS011;6146;48.128;11.476;2022-08-19T08:25:21;19.40;;;17.43;;
12165;SDS011;6146;48.128;11.476;2022-08-19T08:27:48;20.90;;;18.70;;
12165;SDS011;6146;48.128;11.476;2022-08-19T08:30:16;19.97;;;18.03;;
12165;SDS011;6146;48.128;11.476;2022-08-19T08:32:46;21.63;;;19.40;;
12165;SDS011;6146;48.128;11.476;2022-08-19T08:35:13;20.07;;;17.03;;
12165;SDS011;6146;48.128;11.476;2022-08-19T08:37:41;22.00;;;19.37;;
12165;SDS011;6146;48.128;11.476;2022-08-19T08:43:07;21.70;;;19.50;;
12165;SDS011;6146;48.128;11.476;2022-08-19T08:45:47;23.47;;;20.37;;
12165;SDS011;6146;48.128;11.476;2022-08-19T08:51:05;22.40;;;20.03;;
12165;SDS011;6146;48.128;11.476;2022-08-19T08:53:37;23.00;;;19.00;;
12165;SDS011;6146;48.128;11.476;2022-08-19T08:56:04;22.93;;;20.57;;
12165;SDS011;6146;48.128;11.476;2022-08-19T08:58:36;20.73;;;18.57;;
12165;SDS011;6146;48.128;11.476;2022-08-19T09:01:26;21.70;;;19.37;;
12165;SDS011;6146;48.128;11.476;2022-08-19T09:03:52;20.53;;;18.40;;
12165;SDS011;6146;48.128;11.476;2022-08-19T09:11:22;19.73;;;17.73;;
12165;SDS011;6146;48.128;11.476;2022-08-19T09:16:38;21.57;;;18.57;;
12165;SDS011;6146;48.128;11.476;2022-08-19T09:19:05;20.70;;;18.50;;
12165;SDS011;6146;48.128;11.476;2022-08-19T09:21:32;21.23;;;18.80;;
12165;SDS011;6146;48.128;11.476;2022-08-19T09:23:59;22.87;;;20.40;;
12165;SDS011;6146;48.128;11.476;2022-08-19T09:26:26;21.53;;;18.73;;
12165;SDS011;6146;48.128;11.476;2022-08-19T09:28:52;21.63;;;19.33;;
12165;SDS011;6146;48.128;11.476;2022-08-19T09:31:23;22.47;;;19.07;;
12165;SDS011;6146;48.128;11.476;2022-08-19T09:33:50;20.70;;;18.23;;
12165;SDS011;6146;48.128;11.476;2022-08-19T09:36:22;20.63;;;18.40;;
12165;SDS011;6146;48.128;11.476;2022-08-19T09:38:50;20.00;;;17.87;;
12165;SDS011;6146;48.128;11.476;2022-08-19T09:41:20;21.53;;;19.23;;
12165;SDS011;6146;48.128;11.476;2022-08-19T09:43:49;19.63;;;17.67;;
12165;SDS011;6146;48.128;11.476;2022-08-19T09:46:21;19.43;;;17.07;;
12165;SDS011;6146;48.128;11.476;2022-08-19T09:48:48;20.23;;;18.03;;
12165;SDS011;6146;48.128;11.476;2022-08-19T09:51:25;19.73;;;17.73;;
12165;SDS011;6146;48.128;11.476;2022-08-19T09:53:53;21.27;;;18.13;;
12165;SDS011;6146;48.128;11.476;2022-08-19T09:56:19;22.80;;;19.50;;
12165;SDS011;6146;48.128;11.476;2022-08-19T09:58:46;20.10;;;16.93;;
12165;SDS011;6146;48.128;11.476;2022-08-19T10:01:16;19.10;;;17.07;;
12165;SDS011;6146;48.128;11.476;2022-08-19T10:03:46;19.60;;;16.50;;
12165;SDS011;6146;48.128;11.476;2022-08-19T10:06:13;19.13;;;17.17;;
12165;SDS011;6146;48.128;11.476;2022-08-19T10:08:39;20.43;;;17.00;;
12165;SDS011;6146;48.128;11.476;2022-08-19T10:11:05;19.37;;;16.80;;
12165;SDS011;6146;48.128;11.476;2022-08-19T10:13:31;18.83;;;16.77;;
12165;SDS011;6146;48.128;11.476;2022-08-19T10:16:07;18.27;;;16.37;;
12165;SDS011;6146;48.128;11.476;2022-08-19T10:18:34;18.47;;;16.67;;
12165;SDS011;6146;48.128;11.476;2022-08-19T10:21:06;23.33;;;20.83;;
12165;SDS011;6146;48.128;11.476;2022-08-19T10:23:37;18.37;;;16.47;;
12165;SDS011;6146;48.128;11.476;2022-08-19T10:26:05;17.93;;;16.03;;
12165;SDS011;6146;48.128;11.476;2022-08-19T10:28:34;19.53;;;17.53;;
12165;SDS011;6146;48.128;11.476;2022-08-19T10:31:05;18.53;;;16.37;;
12165;SDS011;6146;48.128;11.476;2022-08-19T10:33:33;16.43;;;14.73;;
12165;SDS011;6146;48.128;11.476;2022-08-19T10:36:00;15.60;;;14.00;;
12165;SDS011;6146;48.128;11.476;2022-08-19T10:38:27;15.33;;;13.73;;
12165;SDS011;6146;48.128;11.476;2022-08-19T10:40:53;13.20;;;12.00;;
12165;SDS011;6146;48.128;11.476;2022-08-19T10:43:19;12.03;;;10.77;;
12165;SDS011;6146;48.128;11.476;2022-08-19T10:45:48;10.47;;;9.57;;
12165;SDS011;6146;48.128;11.476;2022-08-19T10:48:17;14.20;;;12.90;;
12165;SDS011;6146;48.128;11.476;2022-08-19T10:50:43;13.30;;;11.93;;
12165;SDS011;6146;48.128;11.476;2022-08-19T10:53:27;13.63;;;12.33;;
12165;SDS011;6146;48.128;11.476;2022-08-19T10:55:52;12.47;;;11.27;;
12165;SDS011;6146;48.128;11.476;2022-08-19T10:58:36;9.63;;;8.73;;
12165;SDS011;6146;48.128;11.476;2022-08-19T11:01:02;11.37;;;10.27;;
12165;SDS011;6146;48.128;11.476;2022-08-19T11:03:27;11.33;;;10.17;;
12165;SDS011;6146;48.128;11.476;2022-08-19T11:05:58;11.77;;;10.57;;
12165;SDS011;6146;48.128;11.476;2022-08-19T11:08:29;12.33;;;11.13;;
12165;SDS011;6146;48.128;11.476;2022-08-19T11:10:57;12.97;;;11.67;;
12165;SDS011;6146;48.128;11.476;2022-08-19T11:13:26;11.77;;;10.33;;
12165;SDS011;6146;48.128;11.476;2022-08-19T11:15:57;10.80;;;9.80;;
12165;SDS011;6146;48.128;11.476;2022-08-19T11:18:27;11.03;;;10.03;;
12165;SDS011;6146;48.128;11.476;2022-08-19T11:20:53;11.47;;;10.37;;
12165;SDS011;6146;48.128;11.476;2022-08-19T11:23:18;7.40;;;6.70;;
12165;SDS011;6146;48.128;11.476;2022-08-19T11:25:45;6.20;;;5.60;;
12165;SDS011;6146;48.128;11.476;2022-08-19T11:28:11;5.67;;;5.17;;
12165;SDS011;6146;48.128;11.476;2022-08-19T11:30:38;6.00;;;5.50;;
12165;SDS011;6146;48.128;11.476;2022-08-19T11:33:04;5.60;;;5.10;;
12165;SDS011;6146;48.128;11.476;2022-08-19T11:35:29;6.40;;;5.80;;
12165;SDS011;6146;48.128;11.476;2022-08-19T11:37:55;6.30;;;5.70;;
12165;SDS011;6146;48.128;11.476;2022-08-19T11:40:26;4.90;;;4.50;;
12165;SDS011;6146;48.128;11.476;2022-08-19T11:42:52;4.37;;;3.97;;
12165;SDS011;6146;48.128;11.476;2022-08-19T11:45:22;4.43;;;4.03;;
12165;SDS011;6146;48.128;11.476;2022-08-19T11:47:48;4.10;;;3.80;;
12165;SDS011;6146;48.128;11.476;2022-08-19T11:50:15;4.10;;;3.43;;
12165;SDS011;6146;48.128;11.476;2022-08-19T11:52:41;5.97;;;5.47;;
12165;SDS011;6146;48.128;11.476;2022-08-19T11:55:07;3.60;;;3.30;;
12165;SDS011;6146;48.128;11.476;2022-08-19T11:57:33;2.40;;;2.20;;
12165;SDS011;6146;48.128;11.476;2022-08-19T11:59:59;3.10;;;2.80;;
12165;SDS011;6146;48.128;11.476;2022-08-19T12:02:24;1.70;;;1.60;;
12165;SDS011;6146;48.128;11.476;2022-08-19T12:04:50;2.07;;;1.90;;
12165;SDS011;6146;48.128;11.476;2022-08-19T12:07:16;2.20;;;2.00;;
12165;SDS011;6146;48.128;11.476;2022-08-19T12:09:42;1.90;;;1.80;;
12165;SDS011;6146;48.128;11.476;2022-08-19T12:12:07;3.03;;;2.00;;
12165;SDS011;6146;48.128;11.476;2022-08-19T12:14:34;2.03;;;1.93;;
12165;SDS011;6146;48.128;11.476;2022-08-19T12:17:00;1.80;;;1.70;;
12165;SDS011;6146;48.128;11.476;2022-08-19T12:19:27;2.20;;;1.67;;
12165;SDS011;6146;48.128;11.476;2022-08-19T12:21:53;3.03;;;2.17;;
12165;SDS011;6146;48.128;11.476;2022-08-19T12:24:25;2.20;;;2.00;;
12165;SDS011;6146;48.128;11.476;2022-08-19T12:26:51;2.40;;;2.20;;
12165;SDS011;6146;48.128;11.476;2022-08-19T12:29:17;2.87;;;2.30;;
12165;SDS011;6146;48.128;11.476;2022-08-19T12:31:43;3.73;;;2.60;;
12165;SDS011;6146;48.128;11.476;2022-08-19T12:34:08;2.40;;;2.20;;
12165;SDS011;6146;48.128;11.476;2022-08-19T12:36:34;2.30;;;2.10;;
12165;SDS011;6146;48.128;11.476;2022-08-19T12:38:59;3.63;;;2.50;;
12165;SDS011;6146;48.128;11.476;2022-08-19T12:41:25;3.37;;;2.60;;
12165;SDS011;6146;48.128;11.476;2022-08-19T12:43:51;2.43;;;2.20;;
12165;SDS011;6146;48.128;11.476;2022-08-19T12:46:17;2.13;;;1.93;;
12165;SDS011;6146;48.128;11.476;2022-08-19T12:48:44;1.97;;;1.83;;
12165;SDS011;6146;48.128;11.476;2022-08-19T12:51:11;2.87;;;1.83;;
12165;SDS011;6146;48.128;11.476;2022-08-19T12:53:39;2.73;;;1.70;;
12165;SDS011;6146;48.128;11.476;2022-08-19T12:56:06;2.13;;;1.93;;
12165;SDS011;6146;48.128;11.476;2022-08-19T12:58:33;2.00;;;1.87;;
12165;SDS011;6146;48.128;11.476;2022-08-19T13:00:59;2.77;;;2.00;;
12165;SDS011;6146;48.128;11.476;2022-08-19T13:03:30;2.97;;;1.90;;
12165;SDS011;6146;48.128;11.476;2022-08-19T13:05:56;2.10;;;1.90;;
12165;SDS011;6146;48.128;11.476;2022-08-19T13:08:21;1.60;;;1.50;;
12165;SDS011;6146;48.128;11.476;2022-08-19T13:10:47;2.20;;;1.77;;
12165;SDS011;6146;48.128;11.476;2022-08-19T13:13:13;1.80;;;1.70;;
12165;SDS011;6146;48.128;11.476;2022-08-19T13:15:40;1.67;;;1.53;;
12165;SDS011;6146;48.128;11.476;2022-08-19T13:18:07;1.70;;;1.60;;
12165;SDS011;6146;48.128;11.476;2022-08-19T13:20:36;1.70;;;1.60;;
12165;SDS011;6146;48.128;11.476;2022-08-19T13:23:03;2.33;;;1.80;;
12165;SDS011;6146;48.128;11.476;2022-08-19T13:25:29;2.17;;;1.97;;
12165;SDS011;6146;48.128;11.476;2022-08-19T13:27:55;1.97;;;1.87;;
12165;SDS011;6146;48.128;11.476;2022-08-19T13:30:21;2.17;;;1.97;;
12165;SDS011;6146;48.128;11.476;2022-08-19T13:33:06;2.20;;;2.00;;
12165;SDS011;6146;48.128;11.476;2022-08-19T13:35:36;2.40;;;2.20;;
12165;SDS011;6146;48.128;11.476;2022-08-19T13:38:03;2.13;;;1.93;;
12165;SDS011;6146;48.128;11.476;2022-08-19T13:40:30;2.30;;;2.10;;
12165;SDS011;6146;48.128;11.476;2022-08-19T13:42:59;2.00;;;1.90;;
12165;SDS011;6146;48.128;11.476;2022-08-19T13:45:25;2.30;;;2.10;;
12165;SDS011;6146;48.128;11.476;2022-08-19T13:47:53;2.67;;;2.47;;
12165;SDS011;6146;48.128;11.476;2022-08-19T13:50:26;2.30;;;2.10;;
12165;SDS011;6146;48.128;11.476;2022-08-19T13:52:54;2.60;;;2.40;;
12165;SDS011;6146;48.128;11.476;2022-08-19T13:55:20;3.47;;;2.47;;
12165;SDS011;6146;48.128;11.476;2022-08-19T13:57:53;2.83;;;2.63;;
12165;SDS011;6146;48.128;11.476;2022-08-19T14:00:20;3.40;;;3.10;;
12165;SDS011;6146;48.128;11.476;2022-08-19T14:02:50;3.40;;;3.10;;
12165;SDS011;6146;48.128;11.476;2022-08-19T14:05:16;3.50;;;3.20;;
12165;SDS011;6146;48.128;11.476;2022-08-19T14:07:42;3.40;;;3.10;;
12165;SDS011;6146;48.128;11.476;2022-08-19T14:10:09;3.60;;;3.30;;
12165;SDS011;6146;48.128;11.476;2022-08-19T14:12:36;3.10;;;2.90;;
12165;SDS011;6146;48.128;11.476;2022-08-19T14:15:03;3.57;;;3.00;;
12165;SDS011;6146;48.128;11.476;2022-08-19T14:17:30;3.03;;;2.80;;
12165;SDS011;6146;48.128;11.476;2022-08-19T14:19:56;3.20;;;2.90;;
12165;SDS011;6146;48.128;11.476;2022-08-19T14:22:24;2.90;;;2.70;;
12165;SDS011;6146;48.128;11.476;2022-08-19T14:24:49;2.70;;;2.50;;
12165;SDS011;6146;48.128;11.476;2022-08-19T14:27:15;3.37;;;2.60;;
12165;SDS011;6146;48.128;11.476;2022-08-19T14:29:41;2.43;;;2.23;;
12165;SDS011;6146;48.128;11.476;2022-08-19T14:32:07;2.47;;;2.23;;
12165;SDS011;6146;48.128;11.476;2022-08-19T14:34:32;2.50;;;2.30;;
12165;SDS011;6146;48.128;11.476;2022-08-19T14:36:58;2.20;;;1.97;;
12165;SDS011;6146;48.128;11.476;2022-08-19T14:39:24;2.50;;;2.07;;
12165;SDS011;6146;48.128;11.476;2022-08-19T14:41:50;2.20;;;2.00;;
12165;SDS011;6146;48.128;11.476;2022-08-19T14:44:16;2.37;;;2.07;;
12165;SDS011;6146;48.128;11.476;2022-08-19T14:46:41;2.30;;;2.10;;
12165;SDS011;6146;48.128;11.476;2022-08-19T14:49:07;2.70;;;2.43;;
12165;SDS011;6146;48.128;11.476;2022-08-19T14:51:33;2.40;;;2.20;;
12165;SDS011;6146;48.128;11.476;2022-08-19T14:53:58;2.57;;;2.37;;
12165;SDS011;6146;48.128;11.476;2022-08-19T14:56:25;2.20;;;2.00;;
12165;SDS011;6146;48.128;11.476;2022-08-19T14:58:53;2.57;;;2.37;;
12165;SDS011;6146;48.128;11.476;2022-08-19T15:01:20;3.00;;;2.70;;